sensor_id;sensor_type;location;lat;lon;timestamp;P1;durP1;ratioP1;P2;durP2;ratioP2
38909;SDS011;24676;51.360;12.354;2022-07-23T04:01:47;2.33;;;1.98;;
38909;SDS011;24676;51.360;12.354;2022-07-23T04:04:32;3.63;;;2.45;;
38909;SDS011;24676;51.360;12.354;2022-07-23T04:07:16;2.63;;;2.15;;
38909;SDS011;24676;51.360;12.354;2022-07-23T04:10:04;2.97;;;2.70;;
38909;SDS011;24676;51.360;12.354;2022-07-23T04:12:49;2.97;;;2.70;;
38909;SDS011;24676;51.360;12.354;2022-07-23T04:15:34;3.42;;;2.33;;
38909;SDS011;24676;51.360;12.354;2022-07-23T04:18:18;2.92;;;2.30;;
38909;SDS011;24676;51.360;12.354;2022-07-23T04:21:05;5.13;;;2.42;;
38909;SDS011;24676;51.360;12.354;2022-07-23T04:23:49;2.38;;;1.58;;
38909;SDS011;24676;51.360;12.354;2022-07-23T04:26:34;3.05;;;2.58;;
38909;SDS011;24676;51.360;12.354;2022-07-23T04:29:19;4.85;;;3.10;;
38909;SDS011;24676;51.360;12.354;2022-07-23T04:32:03;2.47;;;2.28;;
38909;SDS011;24676;51.360;12.354;2022-07-23T04:34:48;3.17;;;2.88;;
38909;SDS011;24676;51.360;12.354;2022-07-23T04:37:33;3.10;;;2.80;;
38909;SDS011;24676;51.360;12.354;2022-07-23T04:40:17;4.70;;;2.78;;
38909;SDS011;24676;51.360;12.354;2022-07-23T04:43:02;5.60;;;2.78;;
38909;SDS011;24676;51.360;12.354;2022-07-23T04:45:46;5.65;;;2.47;;
38909;SDS011;24676;51.360;12.354;2022-07-23T04:48:31;9.70;;;2.80;;
38909;SDS011;24676;51.360;12.354;2022-07-23T04:51:15;8.98;;;2.38;;
38909;SDS011;24676;51.360;12.354;2022-07-23T04:53:59;2.67;;;2.33;;
38909;SDS011;24676;51.360;12.354;2022-07-23T04:56:43;5.03;;;3.55;;
38909;SDS011;24676;51.360;12.354;2022-07-23T04:59:28;5.28;;;3.53;;
38909;SDS011;24676;51.360;12.354;2022-07-23T05:02:12;3.22;;;2.67;;
38909;SDS011;24676;51.360;12.354;2022-07-23T05:04:56;3.63;;;3.03;;
38909;SDS011;24676;51.360;12.354;2022-07-23T05:07:40;6.75;;;2.97;;
38909;SDS011;24676;51.360;12.354;2022-07-23T05:10:24;6.53;;;3.60;;
38909;SDS011;24676;51.360;12.354;2022-07-23T05:13:08;4.45;;;2.90;;
38909;SDS011;24676;51.360;12.354;2022-07-23T05:15:53;6.70;;;3.33;;
38909;SDS011;24676;51.360;12.354;2022-07-23T05:18:37;3.75;;;2.92;;
38909;SDS011;24676;51.360;12.354;2022-07-23T05:21:21;6.72;;;3.45;;
38909;SDS011;24676;51.360;12.354;2022-07-23T05:24:06;2.75;;;2.55;;
38909;SDS011;24676;51.360;12.354;2022-07-23T05:26:51;4.35;;;2.72;;
38909;SDS011;24676;51.360;12.354;2022-07-23T05:29:35;3.80;;;2.30;;
38909;SDS011;24676;51.360;12.354;2022-07-23T05:32:19;3.30;;;2.88;;
38909;SDS011;24676;51.360;12.354;2022-07-23T05:35:04;3.08;;;2.80;;
38909;SDS011;24676;51.360;12.354;2022-07-23T05:37:49;11.40;;;3.83;;
38909;SDS011;24676;51.360;12.354;2022-07-23T05:40:36;6.13;;;3.30;;
38909;SDS011;24676;51.360;12.354;2022-07-23T05:43:21;4.75;;;3.05;;
38909;SDS011;24676;51.360;12.354;2022-07-23T05:46:05;3.75;;;2.67;;
38909;SDS011;24676;51.360;12.354;2022-07-23T05:48:49;10.80;;;3.13;;
38909;SDS011;24676;51.360;12.354;2022-07-23T05:51:33;3.10;;;2.80;;
38909;SDS011;24676;51.360;12.354;2022-07-23T05:54:17;7.57;;;2.78;;
38909;SDS011;24676;51.360;12.354;2022-07-23T05:57:02;6.32;;;3.42;;
38909;SDS011;24676;51.360;12.354;2022-07-23T05:59:47;3.97;;;3.00;;
38909;SDS011;24676;51.360;12.354;2022-07-23T06:02:31;2.55;;;2.35;;
38909;SDS011;24676;51.360;12.354;2022-07-23T06:05:16;3.95;;;3.28;;
38909;SDS011;24676;51.360;12.354;2022-07-23T06:08:00;3.00;;;2.15;;
38909;SDS011;24676;51.360;12.354;2022-07-23T06:10:44;2.95;;;2.55;;
38909;SDS011;24676;51.360;12.354;2022-07-23T06:13:28;2.20;;;2.05;;
38909;SDS011;24676;51.360;12.354;2022-07-23T06:16:12;11.75;;;3.50;;
38909;SDS011;24676;51.360;12.354;2022-07-23T06:18:57;4.55;;;3.20;;
38909;SDS011;24676;51.360;12.354;2022-07-23T06:21:41;7.55;;;2.92;;
38909;SDS011;24676;51.360;12.354;2022-07-23T06:24:25;4.32;;;3.50;;
38909;SDS011;24676;51.360;12.354;2022-07-23T06:27:10;2.95;;;2.75;;
38909;SDS011;24676;51.360;12.354;2022-07-23T06:29:54;3.53;;;2.75;;
38909;SDS011;24676;51.360;12.354;2022-07-23T06:32:38;7.78;;;3.40;;
38909;SDS011;24676;51.360;12.354;2022-07-23T06:35:22;4.68;;;3.22;;
38909;SDS011;24676;51.360;12.354;2022-07-23T06:38:06;3.85;;;2.90;;
38909;SDS011;24676;51.360;12.354;2022-07-23T06:40:51;3.20;;;2.60;;
38909;SDS011;24676;51.360;12.354;2022-07-23T06:43:35;3.17;;;1.83;;
38909;SDS011;24676;51.360;12.354;2022-07-23T06:46:20;4.85;;;2.38;;
38909;SDS011;24676;51.360;12.354;2022-07-23T06:49:05;2.88;;;2.65;;
38909;SDS011;24676;51.360;12.354;2022-07-23T06:51:49;7.45;;;2.08;;
38909;SDS011;24676;51.360;12.354;2022-07-23T06:54:33;3.67;;;3.00;;
38909;SDS011;24676;51.360;12.354;2022-07-23T06:57:18;2.65;;;2.10;;
38909;SDS011;24676;51.360;12.354;2022-07-23T07:00:03;4.72;;;2.78;;
38909;SDS011;24676;51.360;12.354;2022-07-23T07:02:48;5.25;;;2.83;;
38909;SDS011;24676;51.360;12.354;2022-07-23T07:05:32;4.07;;;1.73;;
38909;SDS011;24676;51.360;12.354;2022-07-23T07:08:16;2.97;;;2.67;;
38909;SDS011;24676;51.360;12.354;2022-07-23T07:11:00;4.00;;;1.92;;
38909;SDS011;24676;51.360;12.354;2022-07-23T07:13:44;5.45;;;1.67;;
38909;SDS011;24676;51.360;12.354;2022-07-23T07:16:28;6.30;;;2.95;;
38909;SDS011;24676;51.360;12.354;2022-07-23T07:19:13;6.95;;;3.22;;
38909;SDS011;24676;51.360;12.354;2022-07-23T07:21:57;7.93;;;2.95;;
38909;SDS011;24676;51.360;12.354;2022-07-23T07:24:41;2.92;;;2.15;;
38909;SDS011;24676;51.360;12.354;2022-07-23T07:27:25;5.03;;;2.65;;
38909;SDS011;24676;51.360;12.354;2022-07-23T07:30:10;4.80;;;3.03;;
38909;SDS011;24676;51.360;12.354;2022-07-23T07:32:55;4.32;;;2.72;;
38909;SDS011;24676;51.360;12.354;2022-07-23T07:35:39;5.40;;;2.97;;
38909;SDS011;24676;51.360;12.354;2022-07-23T07:38:23;3.65;;;2.85;;
38909;SDS011;24676;51.360;12.354;2022-07-23T07:41:08;3.55;;;2.83;;
38909;SDS011;24676;51.360;12.354;2022-07-23T07:43:53;3.13;;;2.83;;
38909;SDS011;24676;51.360;12.354;2022-07-23T07:46:37;6.30;;;3.03;;
38909;SDS011;24676;51.360;12.354;2022-07-23T07:49:21;5.28;;;4.22;;
38909;SDS011;24676;51.360;12.354;2022-07-23T07:52:06;5.45;;;3.75;;
38909;SDS011;24676;51.360;12.354;2022-07-23T07:54:50;4.78;;;2.38;;
38909;SDS011;24676;51.360;12.354;2022-07-23T07:57:34;5.25;;;4.10;;
38909;SDS011;24676;51.360;12.354;2022-07-23T08:00:19;7.03;;;3.70;;
38909;SDS011;24676;51.360;12.354;2022-07-23T08:03:03;3.90;;;2.80;;
38909;SDS011;24676;51.360;12.354;2022-07-23T08:05:48;5.30;;;3.70;;
38909;SDS011;24676;51.360;12.354;2022-07-23T08:08:32;3.47;;;2.70;;
38909;SDS011;24676;51.360;12.354;2022-07-23T08:11:17;4.65;;;3.88;;
38909;SDS011;24676;51.360;12.354;2022-07-23T08:14:02;6.80;;;3.75;;
38909;SDS011;24676;51.360;12.354;2022-07-23T08:16:46;4.38;;;3.38;;
38909;SDS011;24676;51.360;12.354;2022-07-23T08:19:31;6.18;;;4.13;;
38909;SDS011;24676;51.360;12.354;2022-07-23T08:22:15;8.20;;;4.13;;
38909;SDS011;24676;51.360;12.354;2022-07-23T08:25:00;5.00;;;2.90;;
38909;SDS011;24676;51.360;12.354;2022-07-23T08:27:44;6.80;;;3.95;;
38909;SDS011;24676;51.360;12.354;2022-07-23T08:30:29;6.38;;;3.67;;
38909;SDS011;24676;51.360;12.354;2022-07-23T08:33:15;4.93;;;4.25;;
38909;SDS011;24676;51.360;12.354;2022-07-23T08:36:01;5.57;;;3.60;;
38909;SDS011;24676;51.360;12.354;2022-07-23T08:38:47;4.25;;;3.85;;
38909;SDS011;24676;51.360;12.354;2022-07-23T08:41:31;5.13;;;4.55;;
38909;SDS011;24676;51.360;12.354;2022-07-23T08:44:17;6.00;;;5.20;;
38909;SDS011;24676;51.360;12.354;2022-07-23T08:47:02;5.15;;;3.70;;
38909;SDS011;24676;51.360;12.354;2022-07-23T08:49:46;7.25;;;3.95;;
38909;SDS011;24676;51.360;12.354;2022-07-23T08:52:31;8.52;;;5.18;;
38909;SDS011;24676;51.360;12.354;2022-07-23T08:55:17;6.00;;;4.75;;
38909;SDS011;24676;51.360;12.354;2022-07-23T08:58:02;5.03;;;3.47;;
38909;SDS011;24676;51.360;12.354;2022-07-23T09:00:47;4.85;;;3.63;;
38909;SDS011;24676;51.360;12.354;2022-07-23T09:03:32;6.32;;;3.90;;
38909;SDS011;24676;51.360;12.354;2022-07-23T09:06:18;4.88;;;3.50;;
38909;SDS011;24676;51.360;12.354;2022-07-23T09:09:15;6.18;;;4.03;;
38909;SDS011;24676;51.360;12.354;2022-07-23T09:12:08;5.22;;;3.10;;
38909;SDS011;24676;51.360;12.354;2022-07-23T09:14:53;5.78;;;4.43;;
38909;SDS011;24676;51.360;12.354;2022-07-23T09:17:42;5.72;;;3.85;;
38909;SDS011;24676;51.360;12.354;2022-07-23T09:20:27;5.43;;;4.28;;
38909;SDS011;24676;51.360;12.354;2022-07-23T09:23:12;5.95;;;4.57;;
38909;SDS011;24676;51.360;12.354;2022-07-23T09:25:57;5.72;;;4.68;;
38909;SDS011;24676;51.360;12.354;2022-07-23T09:28:48;3.85;;;3.25;;
38909;SDS011;24676;51.360;12.354;2022-07-23T09:32:01;6.93;;;4.57;;
38909;SDS011;24676;51.360;12.354;2022-07-23T09:34:49;5.97;;;4.80;;
38909;SDS011;24676;51.360;12.354;2022-07-23T09:37:33;10.00;;;4.57;;
38909;SDS011;24676;51.360;12.354;2022-07-23T09:40:17;6.78;;;4.13;;
38909;SDS011;24676;51.360;12.354;2022-07-23T09:43:01;3.67;;;2.70;;
38909;SDS011;24676;51.360;12.354;2022-07-23T09:45:46;4.13;;;3.15;;
38909;SDS011;24676;51.360;12.354;2022-07-23T09:48:32;5.47;;;4.20;;
38909;SDS011;24676;51.360;12.354;2022-07-23T09:51:17;4.22;;;3.17;;
38909;SDS011;24676;51.360;12.354;2022-07-23T09:54:20;12.10;;;6.57;;
38909;SDS011;24676;51.360;12.354;2022-07-23T09:57:24;3.78;;;3.03;;
38909;SDS011;24676;51.360;12.354;2022-07-23T10:00:10;2.92;;;2.63;;
38909;SDS011;24676;51.360;12.354;2022-07-23T10:02:57;6.97;;;3.40;;
38909;SDS011;24676;51.360;12.354;2022-07-23T10:05:41;8.65;;;3.65;;
38909;SDS011;24676;51.360;12.354;2022-07-23T10:08:27;3.30;;;2.45;;
38909;SDS011;24676;51.360;12.354;2022-07-23T10:11:12;6.68;;;3.00;;
38909;SDS011;24676;51.360;12.354;2022-07-23T10:13:58;4.85;;;2.90;;
38909;SDS011;24676;51.360;12.354;2022-07-23T10:16:44;4.22;;;2.70;;
38909;SDS011;24676;51.360;12.354;2022-07-23T10:19:29;5.53;;;3.05;;
38909;SDS011;24676;51.360;12.354;2022-07-23T10:22:18;3.25;;;2.95;;
38909;SDS011;24676;51.360;12.354;2022-07-23T10:32:04;4.93;;;3.60;;
38909;SDS011;24676;51.360;12.354;2022-07-23T10:35:38;4.95;;;3.38;;
38909;SDS011;24676;51.360;12.354;2022-07-23T10:38:57;4.35;;;3.55;;
38909;SDS011;24676;51.360;12.354;2022-07-23T10:41:49;4.40;;;4.00;;
38909;SDS011;24676;51.360;12.354;2022-07-23T10:44:39;6.57;;;4.10;;
38909;SDS011;24676;51.360;12.354;2022-07-23T10:47:27;6.13;;;3.92;;
38909;SDS011;24676;51.360;12.354;2022-07-23T10:50:28;8.13;;;4.53;;
38909;SDS011;24676;51.360;12.354;2022-07-23T10:53:18;6.80;;;3.72;;
38909;SDS011;24676;51.360;12.354;2022-07-23T10:56:02;6.40;;;4.43;;
38909;SDS011;24676;51.360;12.354;2022-07-23T10:58:50;5.00;;;4.38;;
38909;SDS011;24676;51.360;12.354;2022-07-23T11:01:35;5.70;;;4.10;;
38909;SDS011;24676;51.360;12.354;2022-07-23T11:04:22;10.32;;;5.72;;
38909;SDS011;24676;51.360;12.354;2022-07-23T11:07:32;8.15;;;4.47;;
38909;SDS011;24676;51.360;12.354;2022-07-23T11:10:31;6.50;;;5.10;;
38909;SDS011;24676;51.360;12.354;2022-07-23T11:13:27;6.28;;;4.70;;
38909;SDS011;24676;51.360;12.354;2022-07-23T11:16:13;8.43;;;5.07;;
38909;SDS011;24676;51.360;12.354;2022-07-23T11:19:03;7.10;;;5.20;;
38909;SDS011;24676;51.360;12.354;2022-07-23T11:21:48;4.50;;;4.10;;
38909;SDS011;24676;51.360;12.354;2022-07-23T11:24:34;10.40;;;5.10;;
38909;SDS011;24676;51.360;12.354;2022-07-23T11:27:37;5.75;;;4.00;;
38909;SDS011;24676;51.360;12.354;2022-07-23T11:36:01;4.57;;;4.07;;
38909;SDS011;24676;51.360;12.354;2022-07-23T11:38:47;7.78;;;4.97;;
38909;SDS011;24676;51.360;12.354;2022-07-23T11:41:44;7.57;;;4.55;;
38909;SDS011;24676;51.360;12.354;2022-07-23T11:47:24;6.50;;;4.32;;
38909;SDS011;24676;51.360;12.354;2022-07-23T11:50:10;5.75;;;4.07;;
38909;SDS011;24676;51.360;12.354;2022-07-23T11:52:54;6.93;;;5.28;;
38909;SDS011;24676;51.360;12.354;2022-07-23T11:55:38;7.15;;;4.45;;
38909;SDS011;24676;51.360;12.354;2022-07-23T11:58:23;6.43;;;4.32;;
38909;SDS011;24676;51.360;12.354;2022-07-23T12:01:07;7.00;;;4.75;;
38909;SDS011;24676;51.360;12.354;2022-07-23T12:03:51;5.25;;;4.40;;
38909;SDS011;24676;51.360;12.354;2022-07-23T12:06:39;5.28;;;3.85;;
38909;SDS011;24676;51.360;12.354;2022-07-23T12:09:23;8.25;;;5.47;;
38909;SDS011;24676;51.360;12.354;2022-07-23T12:12:08;6.32;;;4.53;;
38909;SDS011;24676;51.360;12.354;2022-07-23T12:14:53;7.03;;;5.05;;
38909;SDS011;24676;51.360;12.354;2022-07-23T12:17:40;8.35;;;4.68;;
38909;SDS011;24676;51.360;12.354;2022-07-23T12:20:31;7.65;;;5.10;;
38909;SDS011;24676;51.360;12.354;2022-07-23T12:23:20;10.20;;;5.68;;
38909;SDS011;24676;51.360;12.354;2022-07-23T12:26:08;9.15;;;6.18;;
38909;SDS011;24676;51.360;12.354;2022-07-23T12:28:54;6.65;;;4.40;;
38909;SDS011;24676;51.360;12.354;2022-07-23T12:31:39;7.13;;;4.90;;
38909;SDS011;24676;51.360;12.354;2022-07-23T12:34:23;6.57;;;4.80;;
38909;SDS011;24676;51.360;12.354;2022-07-23T12:43:30;8.85;;;4.80;;
38909;SDS011;24676;51.360;12.354;2022-07-23T12:46:19;6.30;;;4.63;;
38909;SDS011;24676;51.360;12.354;2022-07-23T12:49:05;4.80;;;4.25;;
38909;SDS011;24676;51.360;12.354;2022-07-23T12:51:49;5.47;;;4.93;;
38909;SDS011;24676;51.360;12.354;2022-07-23T12:54:33;4.72;;;3.03;;
38909;SDS011;24676;51.360;12.354;2022-07-23T12:57:17;6.57;;;4.10;;
38909;SDS011;24676;51.360;12.354;2022-07-23T13:00:08;7.25;;;4.10;;
38909;SDS011;24676;51.360;12.354;2022-07-23T13:02:53;5.67;;;4.70;;
38909;SDS011;24676;51.360;12.354;2022-07-23T13:05:37;8.32;;;3.70;;
38909;SDS011;24676;51.360;12.354;2022-07-23T13:08:22;4.90;;;4.40;;
38909;SDS011;24676;51.360;12.354;2022-07-23T13:11:07;5.28;;;4.35;;
38909;SDS011;24676;51.360;12.354;2022-07-23T13:13:51;5.70;;;4.72;;
38909;SDS011;24676;51.360;12.354;2022-07-23T13:16:35;8.13;;;5.13;;
38909;SDS011;24676;51.360;12.354;2022-07-23T13:19:20;5.63;;;3.97;;
38909;SDS011;24676;51.360;12.354;2022-07-23T13:22:05;4.93;;;4.22;;
38909;SDS011;24676;51.360;12.354;2022-07-23T13:24:49;6.65;;;4.25;;
38909;SDS011;24676;51.360;12.354;2022-07-23T13:27:33;5.97;;;4.18;;
38909;SDS011;24676;51.360;12.354;2022-07-23T13:30:18;5.07;;;4.57;;
38909;SDS011;24676;51.360;12.354;2022-07-23T13:33:03;7.22;;;4.45;;
38909;SDS011;24676;51.360;12.354;2022-07-23T13:35:48;3.90;;;3.58;;
38909;SDS011;24676;51.360;12.354;2022-07-23T13:38:34;6.95;;;3.72;;
38909;SDS011;24676;51.360;12.354;2022-07-23T13:41:18;4.28;;;3.88;;
38909;SDS011;24676;51.360;12.354;2022-07-23T13:44:03;7.70;;;4.15;;
38909;SDS011;24676;51.360;12.354;2022-07-23T13:46:47;5.90;;;4.20;;
38909;SDS011;24676;51.360;12.354;2022-07-23T13:49:32;5.45;;;4.13;;
38909;SDS011;24676;51.360;12.354;2022-07-23T13:52:16;6.05;;;4.57;;
38909;SDS011;24676;51.360;12.354;2022-07-23T13:55:01;4.10;;;3.63;;
38909;SDS011;24676;51.360;12.354;2022-07-23T13:57:47;4.55;;;3.83;;
38909;SDS011;24676;51.360;12.354;2022-07-23T14:00:32;4.78;;;4.30;;
38909;SDS011;24676;51.360;12.354;2022-07-23T14:03:19;5.78;;;3.97;;
38909;SDS011;24676;51.360;12.354;2022-07-23T14:06:06;10.27;;;4.22;;
38909;SDS011;24676;51.360;12.354;2022-07-23T14:08:50;4.10;;;3.67;;
38909;SDS011;24676;51.360;12.354;2022-07-23T14:11:34;7.25;;;4.60;;
38909;SDS011;24676;51.360;12.354;2022-07-23T14:14:18;6.65;;;3.80;;
38909;SDS011;24676;51.360;12.354;2022-07-23T14:17:03;5.53;;;4.00;;
38909;SDS011;24676;51.360;12.354;2022-07-23T14:19:47;6.28;;;4.47;;
38909;SDS011;24676;51.360;12.354;2022-07-23T14:22:33;5.20;;;4.05;;
38909;SDS011;24676;51.360;12.354;2022-07-23T14:25:17;4.55;;;3.70;;
38909;SDS011;24676;51.360;12.354;2022-07-23T14:28:01;7.25;;;5.00;;
38909;SDS011;24676;51.360;12.354;2022-07-23T14:30:45;4.18;;;3.58;;
38909;SDS011;24676;51.360;12.354;2022-07-23T14:33:30;11.50;;;5.60;;
38909;SDS011;24676;51.360;12.354;2022-07-23T14:36:14;6.97;;;4.40;;
38909;SDS011;24676;51.360;12.354;2022-07-23T14:39:00;8.60;;;3.63;;
38909;SDS011;24676;51.360;12.354;2022-07-23T14:41:44;9.77;;;4.70;;
38909;SDS011;24676;51.360;12.354;2022-07-23T14:44:29;5.68;;;5.05;;
38909;SDS011;24676;51.360;12.354;2022-07-23T14:47:13;6.68;;;4.47;;
38909;SDS011;24676;51.360;12.354;2022-07-23T14:49:57;5.60;;;4.97;;
38909;SDS011;24676;51.360;12.354;2022-07-23T14:52:41;5.63;;;4.28;;
38909;SDS011;24676;51.360;12.354;2022-07-23T14:55:25;6.30;;;4.95;;
38909;SDS011;24676;51.360;12.354;2022-07-23T14:58:10;5.95;;;4.85;;
38909;SDS011;24676;51.360;12.354;2022-07-23T15:00:54;6.07;;;4.97;;
38909;SDS011;24676;51.360;12.354;2022-07-23T15:03:39;5.63;;;4.90;;
38909;SDS011;24676;51.360;12.354;2022-07-23T15:06:23;5.18;;;4.00;;
38909;SDS011;24676;51.360;12.354;2022-07-23T15:09:08;4.53;;;3.35;;
38909;SDS011;24676;51.360;12.354;2022-07-23T15:11:52;7.03;;;4.75;;
38909;SDS011;24676;51.360;12.354;2022-07-23T15:14:36;6.88;;;4.82;;
38909;SDS011;24676;51.360;12.354;2022-07-23T15:17:20;7.85;;;5.15;;
38909;SDS011;24676;51.360;12.354;2022-07-23T15:20:05;4.70;;;4.20;;
38909;SDS011;24676;51.360;12.354;2022-07-23T15:22:50;7.15;;;4.38;;
38909;SDS011;24676;51.360;12.354;2022-07-23T15:25:34;8.55;;;5.50;;
38909;SDS011;24676;51.360;12.354;2022-07-23T15:28:19;7.45;;;3.22;;
38909;SDS011;24676;51.360;12.354;2022-07-23T15:31:03;4.40;;;3.10;;
38909;SDS011;24676;51.360;12.354;2022-07-23T15:33:47;6.05;;;3.80;;
38909;SDS011;24676;51.360;12.354;2022-07-23T15:36:32;4.95;;;4.45;;
38909;SDS011;24676;51.360;12.354;2022-07-23T15:39:16;4.22;;;3.83;;
38909;SDS011;24676;51.360;12.354;2022-07-23T15:42:00;6.13;;;4.30;;
38909;SDS011;24676;51.360;12.354;2022-07-23T15:44:46;9.88;;;5.55;;
38909;SDS011;24676;51.360;12.354;2022-07-23T15:47:30;4.68;;;4.28;;
38909;SDS011;24676;51.360;12.354;2022-07-23T15:50:14;5.53;;;3.92;;
38909;SDS011;24676;51.360;12.354;2022-07-23T15:52:58;5.07;;;4.40;;
38909;SDS011;24676;51.360;12.354;2022-07-23T15:55:43;5.35;;;4.03;;
38909;SDS011;24676;51.360;12.354;2022-07-23T15:58:29;8.98;;;5.20;;
38909;SDS011;24676;51.360;12.354;2022-07-23T16:01:14;5.13;;;3.92;;
38909;SDS011;24676;51.360;12.354;2022-07-23T16:03:58;3.78;;;3.42;;
38909;SDS011;24676;51.360;12.354;2022-07-23T16:06:42;3.83;;;3.42;;
38909;SDS011;24676;51.360;12.354;2022-07-23T16:09:27;4.30;;;3.72;;
38909;SDS011;24676;51.360;12.354;2022-07-23T16:12:12;4.80;;;3.75;;
38909;SDS011;24676;51.360;12.354;2022-07-23T16:14:56;4.20;;;3.80;;
38909;SDS011;24676;51.360;12.354;2022-07-23T16:17:40;4.15;;;3.35;;
38909;SDS011;24676;51.360;12.354;2022-07-23T16:20:24;6.68;;;4.32;;
38909;SDS011;24676;51.360;12.354;2022-07-23T16:23:09;4.10;;;3.65;;
38909;SDS011;24676;51.360;12.354;2022-07-23T16:25:53;3.72;;;3.13;;
38909;SDS011;24676;51.360;12.354;2022-07-23T16:28:37;6.15;;;3.47;;
38909;SDS011;24676;51.360;12.354;2022-07-23T16:31:24;3.55;;;3.17;;
38909;SDS011;24676;51.360;12.354;2022-07-23T16:34:09;5.80;;;4.45;;
38909;SDS011;24676;51.360;12.354;2022-07-23T16:36:53;4.18;;;3.30;;
38909;SDS011;24676;51.360;12.354;2022-07-23T16:39:38;4.43;;;3.92;;
38909;SDS011;24676;51.360;12.354;2022-07-23T16:42:22;5.05;;;3.38;;
38909;SDS011;24676;51.360;12.354;2022-07-23T16:45:07;4.05;;;3.38;;
38909;SDS011;24676;51.360;12.354;2022-07-23T16:47:52;4.15;;;3.30;;
38909;SDS011;24676;51.360;12.354;2022-07-23T16:50:36;6.00;;;3.50;;
38909;SDS011;24676;51.360;12.354;2022-07-23T16:53:20;2.60;;;2.40;;
38909;SDS011;24676;51.360;12.354;2022-07-23T16:56:05;3.33;;;2.83;;
38909;SDS011;24676;51.360;12.354;2022-07-23T16:58:50;3.70;;;3.40;;
38909;SDS011;24676;51.360;12.354;2022-07-23T17:01:34;5.72;;;3.70;;
38909;SDS011;24676;51.360;12.354;2022-07-23T17:04:19;3.75;;;3.05;;
38909;SDS011;24676;51.360;12.354;2022-07-23T17:07:03;4.00;;;3.70;;
38909;SDS011;24676;51.360;12.354;2022-07-23T17:09:48;4.53;;;3.95;;
38909;SDS011;24676;51.360;12.354;2022-07-23T17:12:32;3.80;;;3.15;;
38909;SDS011;24676;51.360;12.354;2022-07-23T17:15:17;4.18;;;3.40;;
38909;SDS011;24676;51.360;12.354;2022-07-23T17:18:03;3.17;;;2.72;;
38909;SDS011;24676;51.360;12.354;2022-07-23T17:20:47;3.53;;;2.83;;
38909;SDS011;24676;51.360;12.354;2022-07-23T17:23:33;3.58;;;3.22;;
38909;SDS011;24676;51.360;12.354;2022-07-23T17:26:17;3.60;;;2.72;;
38909;SDS011;24676;51.360;12.354;2022-07-23T17:29:02;3.55;;;3.08;;
38909;SDS011;24676;51.360;12.354;2022-07-23T17:31:46;5.75;;;2.95;;
38909;SDS011;24676;51.360;12.354;2022-07-23T17:34:31;4.53;;;4.00;;
38909;SDS011;24676;51.360;12.354;2022-07-23T17:37:15;3.08;;;2.75;;
38909;SDS011;24676;51.360;12.354;2022-07-23T17:40:00;3.72;;;3.42;;
38909;SDS011;24676;51.360;12.354;2022-07-23T17:42:45;3.10;;;2.80;;
38909;SDS011;24676;51.360;12.354;2022-07-23T17:45:29;3.00;;;2.70;;
38909;SDS011;24676;51.360;12.354;2022-07-23T17:48:13;3.25;;;3.03;;
38909;SDS011;24676;51.360;12.354;2022-07-23T17:50:58;3.45;;;3.15;;
38909;SDS011;24676;51.360;12.354;2022-07-23T17:53:42;4.43;;;2.67;;
38909;SDS011;24676;51.360;12.354;2022-07-23T17:56:26;3.22;;;2.92;;
38909;SDS011;24676;51.360;12.354;2022-07-23T18:18:21;3.28;;;1.23;;
38909;SDS011;24676;51.360;12.354;2022-07-23T18:21:05;1.93;;;0.90;;
38909;SDS011;24676;51.360;12.354;2022-07-23T18:23:49;1.92;;;0.57;;
38909;SDS011;24676;51.360;12.354;2022-07-23T18:26:34;2.60;;;0.88;;
38909;SDS011;24676;51.360;12.354;2022-07-23T18:29:19;0.65;;;0.65;;
38909;SDS011;24676;51.360;12.354;2022-07-23T18:32:03;0.70;;;0.50;;
38909;SDS011;24676;51.360;12.354;2022-07-23T18:34:48;0.85;;;0.82;;
38909;SDS011;24676;51.360;12.354;2022-07-23T19:10:25;0.98;;;0.63;;
38909;SDS011;24676;51.360;12.354;2022-07-23T19:13:10;0.47;;;0.47;;
38909;SDS011;24676;51.360;12.354;2022-07-23T19:15:54;0.65;;;0.57;;
38909;SDS011;24676;51.360;12.354;2022-07-23T19:18:41;0.70;;;0.68;;
38909;SDS011;24676;51.360;12.354;2022-07-23T19:21:25;3.00;;;0.60;;
38909;SDS011;24676;51.360;12.354;2022-07-23T19:24:10;0.60;;;0.57;;
38909;SDS011;24676;51.360;12.354;2022-07-23T19:26:54;0.40;;;0.40;;
38909;SDS011;24676;51.360;12.354;2022-07-23T19:29:39;1.27;;;0.57;;
38909;SDS011;24676;51.360;12.354;2022-07-23T19:32:23;1.60;;;1.50;;
38909;SDS011;24676;51.360;12.354;2022-07-23T19:35:08;1.35;;;0.85;;
38909;SDS011;24676;51.360;12.354;2022-07-23T19:37:52;1.17;;;0.73;;
38909;SDS011;24676;51.360;12.354;2022-07-23T19:40:36;3.33;;;0.52;;
38909;SDS011;24676;51.360;12.354;2022-07-23T19:43:20;0.63;;;0.40;;
38909;SDS011;24676;51.360;12.354;2022-07-23T19:46:05;0.65;;;0.50;;
38909;SDS011;24676;51.360;12.354;2022-07-23T19:48:49;2.17;;;0.73;;
38909;SDS011;24676;51.360;12.354;2022-07-23T19:51:33;2.45;;;0.60;;
38909;SDS011;24676;51.360;12.354;2022-07-23T19:54:18;1.55;;;0.40;;
38909;SDS011;24676;51.360;12.354;2022-07-23T19:57:02;7.13;;;1.52;;
38909;SDS011;24676;51.360;12.354;2022-07-23T19:59:47;0.63;;;0.63;;
38909;SDS011;24676;51.360;12.354;2022-07-23T20:02:31;1.73;;;1.08;;
38909;SDS011;24676;51.360;12.354;2022-07-23T20:05:15;0.77;;;0.70;;
38909;SDS011;24676;51.360;12.354;2022-07-23T20:07:59;3.60;;;1.20;;
38909;SDS011;24676;51.360;12.354;2022-07-23T20:10:43;0.63;;;0.63;;
38909;SDS011;24676;51.360;12.354;2022-07-23T20:13:27;0.70;;;0.55;;
38909;SDS011;24676;51.360;12.354;2022-07-23T20:16:12;0.52;;;0.52;;
38909;SDS011;24676;51.360;12.354;2022-07-23T20:18:56;0.70;;;0.63;;
38909;SDS011;24676;51.360;12.354;2022-07-23T20:21:41;1.25;;;0.57;;
38909;SDS011;24676;51.360;12.354;2022-07-23T20:24:29;0.68;;;0.68;;
38909;SDS011;24676;51.360;12.354;2022-07-23T20:27:13;1.17;;;0.93;;
38909;SDS011;24676;51.360;12.354;2022-07-23T20:29:58;0.77;;;0.70;;
38909;SDS011;24676;51.360;12.354;2022-07-23T20:32:42;4.95;;;1.50;;
38909;SDS011;24676;51.360;12.354;2022-07-23T20:35:27;1.23;;;1.23;;
38909;SDS011;24676;51.360;12.354;2022-07-23T20:38:11;2.90;;;1.27;;
38909;SDS011;24676;51.360;12.354;2022-07-23T20:40:55;1.65;;;1.30;;
38909;SDS011;24676;51.360;12.354;2022-07-23T20:43:40;1.48;;;1.38;;
38909;SDS011;24676;51.360;12.354;2022-07-23T20:46:26;2.00;;;1.35;;
38909;SDS011;24676;51.360;12.354;2022-07-23T20:49:11;1.23;;;1.00;;
38909;SDS011;24676;51.360;12.354;2022-07-23T20:51:55;1.98;;;1.38;;
38909;SDS011;24676;51.360;12.354;2022-07-23T20:54:39;3.10;;;1.83;;
38909;SDS011;24676;51.360;12.354;2022-07-23T20:57:24;1.30;;;1.20;;
